Time;durP1;ratioP1;P1;durP2;ratioP2;P2;SDS_P1;SDS_P2;PMS_P1;PMS_P2;Temp;Humidity;BMP_temperature;BMP_pressure;BME280_temperature;BME280_humidity;BME280_pressure;Samples;Min_cycle;Max_cycle;Signal;HPM_P1;HPM_P2
2022/06/03 00:02:24;;;;;;;;;;;;;;;12.52;100.00;102208.72;4993132;28;19934;-29
2022/06/03 00:05:05;;;;;;;;;;;;;;;12.50;100.00;102202.56;4993977;28;19976;-29
2022/06/03 00:07:44;;;;;;;;;;;;;;;12.49;100.00;102205.63;4996678;28;19925;-31
2022/06/03 00:10:21;;;;;;;;;;;;;;;12.47;100.00;102199.47;4996205;28;19932;-30
2022/06/03 00:12:51;;;;;;;;;;;;;;;12.44;100.00;102200.84;4996635;28;19922;-30
2022/06/03 00:15:24;;;;;;;;;;;;;;;12.44;100.00;102203.66;4996518;28;19922;-30
2022/06/03 00:17:57;;;;;;;;;;;;;;;12.41;100.00;102202.25;4995968;28;19928;-29
2022/06/03 00:20:31;;;;;;;;;;;;;;;12.39;100.00;102200.84;4996365;28;19921;-29
2022/06/03 00:23:11;;;;;;;;;;;;;;;12.37;100.00;102195.56;4996612;28;19948;-31
2022/06/03 00:25:51;;;;;;;;;;;;;;;12.36;100.00;102204.22;4995690;28;19922;-31
2022/06/03 00:28:25;;;;;;;;;;;;;;;12.34;100.00;102203.66;4996467;28;20363;-29
2022/06/03 00:31:02;;;;;;;;;;;;;;;12.31;100.00;102193.84;4996235;28;20280;-29
2022/06/03 00:33:37;;;;;;;;;;;;;;;12.28;100.00;102191.63;4996471;28;19922;-30
2022/06/03 00:36:16;;;;;;;;;;;;;;;12.27;100.00;102194.69;4996422;28;19957;-29
2022/06/03 00:38:53;;;;;;;;;;;;;;;12.24;100.00;102190.47;4995327;28;20017;-30
2022/06/03 00:41:41;;;;;;;;;;;;;;;12.23;100.00;102196.34;4996429;28;19921;-30
2022/06/03 00:44:20;;;;;;;;;;;;;;;12.20;100.00;102199.69;4996121;28;20379;-29
2022/06/03 00:47:03;;;;;;;;;;;;;;;12.17;100.00;102183.50;4995566;28;19922;-30
2022/06/03 00:49:48;;;;;;;;;;;;;;;12.15;100.00;102188.53;4995821;28;20470;-30
2022/06/03 00:52:49;;;;;;;;;;;;;;;12.13;100.00;102188.81;4988693;28;19944;-29
2022/06/03 00:55:31;;;;;;;;;;;;;;;12.12;100.00;102191.88;4954892;29;20427;-32
2022/06/03 00:58:11;;;;;;;;;;;;;;;12.10;100.00;102180.13;4954936;28;19928;-30
2022/06/03 01:00:43;;;;;;;;;;;;;;;12.07;100.00;102173.94;4980151;28;19922;-33
2022/06/03 01:03:16;;;;;;;;;;;;;;;12.06;100.00;102185.41;4995779;28;20397;-36
2022/06/03 01:05:53;;;;;;;;;;;;;;;12.04;100.00;102174.50;4995831;28;20036;-36
2022/06/03 01:08:27;;;;;;;;;;;;;;;12.01;100.00;102172.25;4994909;28;19926;-36
2022/06/03 01:11:06;;;;;;;;;;;;;;;12.00;100.00;102166.94;4995740;28;20107;-34
2022/06/03 01:13:42;;;;;;;;;;;;;;;11.98;100.00;102175.63;4995044;28;19964;-31
2022/06/03 01:16:18;;;;;;;;;;;;;;;11.96;100.00;102172.25;4994792;28;19925;-30
2022/06/03 01:18:50;;;;;;;;;;;;;;;11.96;100.00;102171.44;4994087;28;19976;-31
2022/06/03 01:21:29;;;;;;;;;;;;;;;11.94;100.00;102176.44;4994898;28;19928;-30
2022/06/03 01:24:15;;;;;;;;;;;;;;;11.93;100.00;102174.78;4995474;28;20032;-30
2022/06/03 01:27:00;;;;;;;;;;;;;;;11.92;100.00;102171.13;4995402;28;20414;-30
2022/06/03 01:29:34;;;;;;;;;;;;;;;11.92;100.00;102165.53;4994673;28;19921;-29
2022/06/03 01:32:23;;;;;;;;;;;;;;;11.91;100.00;102171.41;4995363;28;19921;-31
2022/06/03 01:35:04;;;;;;;;;;;;;;;11.92;100.00;102171.13;4993250;28;20012;-30
2022/06/03 01:37:35;;;;;;;;;;;;;;;11.91;100.00;102166.66;4995110;28;20397;-29
2022/06/03 01:40:21;;;;;;;;;;;;;;;11.91;100.00;102174.22;4995287;28;19922;-30
2022/06/03 01:43:14;;;;;;;;;;;;;;;11.91;100.00;102174.22;4994361;28;19925;-29
2022/06/03 01:45:55;;;;;;;;;;;;;;;11.90;100.00;102166.94;4994798;28;20399;-29
2022/06/03 01:48:40;;;;;;;;;;;;;;;11.90;100.00;102166.94;4994516;28;19944;-29
2022/06/03 01:51:24;;;;;;;;;;;;;;;11.89;100.00;102163.28;4994887;28;19972;-29
2022/06/03 01:54:11;;;;;;;;;;;;;;;11.88;100.00;102161.59;4994733;28;19922;-29
2022/06/03 01:56:48;;;;;;;;;;;;;;;11.87;100.00;102157.13;4993873;28;19949;-29
2022/06/03 01:59:36;;;;;;;;;;;;;;;11.87;100.00;102154.34;4994866;28;19921;-29
2022/06/03 02:02:18;;;;;;;;;;;;;;;11.85;100.00;102148.16;4978004;28;19926;-30
2022/06/03 02:05:07;;;;;;;;;;;;;;;11.83;100.00;102150.41;4994685;28;20351;-30
2022/06/03 02:07:59;;;;;;;;;;;;;;;11.83;100.00;102156.00;4994773;28;19922;-30
2022/06/03 02:10:40;;;;;;;;;;;;;;;11.80;100.00;102150.94;4983724;28;19922;-30
2022/06/03 02:13:27;;;;;;;;;;;;;;;11.78;100.00;102150.41;4994310;28;19921;-30
2022/06/03 02:16:08;;;;;;;;;;;;;;;11.76;100.00;102143.38;4994597;28;19936;-29
2022/06/03 02:18:47;;;;;;;;;;;;;;;11.74;100.00;102138.06;4993404;28;20331;-31
2022/06/03 02:21:26;;;;;;;;;;;;;;;11.72;100.00;102137.50;4994223;28;19932;-32
2022/06/03 02:24:00;;;;;;;;;;;;;;;11.71;100.00;102141.41;4993874;28;20338;-29
2022/06/03 02:26:45;;;;;;;;;;;;;;;11.68;100.00;102137.19;4994402;28;19928;-29
2022/06/03 02:32:27;;;;;;;;;;;;;;;11.64;100.00;102129.63;4993313;28;20016;-35
2022/06/03 02:35:01;;;;;;;;;;;;;;;11.62;100.00;102131.84;4994117;28;19931;-36
2022/06/03 02:37:38;;;;;;;;;;;;;;;11.58;100.00;102125.16;4993956;28;19936;-36
2022/06/03 02:40:23;;;;;;;;;;;;;;;11.56;100.00;102125.44;4994093;28;20343;-36
2022/06/03 02:43:09;;;;;;;;;;;;;;;11.53;100.00;102127.94;4994057;28;20287;-35
2022/06/03 02:46:02;;;;;;;;;;;;;;;11.51;100.00;102121.78;4993138;28;19988;-29
2022/06/03 02:48:57;;;;;;;;;;;;;;;11.46;100.00;102116.16;4994046;28;19926;-29
2022/06/03 02:51:31;;;;;;;;;;;;;;;11.43;100.00;102113.91;4970120;28;19933;-31
2022/06/03 02:54:14;;;;;;;;;;;;;;;11.39;100.00;102120.03;4993241;28;19921;-29
2022/06/03 02:56:59;;;;;;;;;;;;;;;11.36;100.00;102119.78;4993593;28;20429;-29
2022/06/03 02:59:34;;;;;;;;;;;;;;;11.33;100.00;102117.53;4992850;28;20378;-29
2022/06/03 03:02:09;;;;;;;;;;;;;;;11.29;100.00;102122.81;4993596;28;19922;-28
2022/06/03 03:04:52;;;;;;;;;;;;;;;11.26;100.00;102123.34;4993593;28;19921;-31
2022/06/03 03:07:41;;;;;;;;;;;;;;;11.24;100.00;102117.19;4991250;28;19925;-29
2022/06/03 03:10:20;;;;;;;;;;;;;;;11.23;100.00;102117.47;4993167;28;20401;-31
2022/06/03 03:12:56;;;;;;;;;;;;;;;11.21;100.00;102125.28;4992444;28;19928;-30
2022/06/03 03:15:41;;;;;;;;;;;;;;;11.19;100.00;102119.16;4992862;28;19926;-29
2022/06/03 03:18:30;;;;;;;;;;;;;;;11.17;100.00;102127.78;4970551;28;19922;-29
2022/06/03 03:21:19;;;;;;;;;;;;;;;11.14;100.00;102125.53;4987222;28;19921;-28
2022/06/03 03:24:01;;;;;;;;;;;;;;;11.13;100.00;102128.59;4990992;28;19921;-29
2022/06/03 03:26:33;;;;;;;;;;;;;;;11.11;100.00;102128.88;4990885;28;19941;-29
2022/06/03 03:29:14;;;;;;;;;;;;;;;11.10;100.00;102124.41;4990736;28;19968;-31
2022/06/03 03:32:00;;;;;;;;;;;;;;;11.08;100.00;102123.81;4991074;28;19956;-31
2022/06/03 03:34:43;;;;;;;;;;;;;;;11.06;100.00;102134.44;4992756;28;19928;-29
2022/06/03 03:37:31;;;;;;;;;;;;;;;11.04;100.00;102122.69;4991967;28;19926;-30
2022/06/03 03:40:10;;;;;;;;;;;;;;;11.01;100.00;102129.66;4997050;28;19922;-30
2022/06/03 03:42:56;;;;;;;;;;;;;;;11.00;100.00;102130.75;4998733;28;19932;-29
2022/06/03 03:45:33;;;;;;;;;;;;;;;10.99;100.00;102133.84;4978942;28;19964;-30
2022/06/03 03:48:22;;;;;;;;;;;;;;;10.97;100.00;102131.31;4996093;28;20009;-29
2022/06/03 03:50:57;;;;;;;;;;;;;;;10.97;100.00;102133.28;4998219;28;19921;-30
2022/06/03 03:53:35;;;;;;;;;;;;;;;10.94;100.00;102134.66;4999455;28;19980;-29
2022/06/03 03:56:17;;;;;;;;;;;;;;;10.94;100.00;102131.03;4998994;28;20408;-29
2022/06/03 03:59:00;;;;;;;;;;;;;;;10.93;100.00;102130.19;4999382;28;20383;-29
2022/06/03 04:01:50;;;;;;;;;;;;;;;10.91;100.00;102121.22;4999323;28;19925;-28
2022/06/03 04:04:42;;;;;;;;;;;;;;;10.93;100.00;102123.75;4982163;28;20023;-36
2022/06/03 04:07:21;;;;;;;;;;;;;;;10.93;100.00;102126.53;4999349;28;19922;-30
2022/06/03 04:10:03;;;;;;;;;;;;;;;10.93;100.00;102121.81;4998805;28;19921;-29
2022/06/03 04:12:35;;;;;;;;;;;;;;;10.95;100.00;102124.31;4999440;28;20020;-28
2022/06/03 04:15:12;;;;;;;;;;;;;;;10.95;100.00;102115.94;4999249;28;20306;-31
2022/06/03 04:18:00;;;;;;;;;;;;;;;10.98;100.00;102118.19;4998319;28;19921;-29
2022/06/03 04:20:58;;;;;;;;;;;;;;;11.00;100.00;102104.78;4999437;28;19922;-31
2022/06/03 04:23:49;;;;;;;;;;;;;;;11.03;100.00;102107.03;4998521;28;19922;-30
2022/06/03 04:26:31;;;;;;;;;;;;;;;11.07;100.00;102101.75;4999129;28;19921;-29
2022/06/03 04:29:07;;;;;;;;;;;;;;;11.09;100.00;102105.97;4999233;28;19950;-31
2022/06/03 04:31:59;;;;;;;;;;;;;;;11.12;100.00;102099.81;4998645;28;19925;-30
2022/06/03 04:34:48;;;;;;;;;;;;;;;11.15;100.00;102092.84;4961743;28;19985;-30
2022/06/03 04:37:51;;;;;;;;;;;;;;;11.17;100.00;102101.81;4995214;28;19928;-28
2022/06/03 04:40:48;;;;;;;;;;;;;;;11.20;100.00;102099.28;4999342;28;20310;-29
2022/06/03 04:43:35;;;;;;;;;;;;;;;11.24;100.00;102094.84;4999349;28;19956;-31
2022/06/03 04:46:20;;;;;;;;;;;;;;;11.28;100.00;102092.34;4998422;28;19925;-29
2022/06/03 04:49:06;;;;;;;;;;;;;;;11.34;100.00;102094.88;4998972;28;20024;-29
2022/06/03 04:51:52;;;;;;;;;;;;;;;11.38;100.00;102087.66;4995014;28;19926;-29
2022/06/03 04:54:38;;;;;;;;;;;;;;;11.42;100.00;102081.47;4995696;28;19922;-28
2022/06/03 04:57:35;;;;;;;;;;;;;;;11.48;100.00;102077.59;4995979;28;20291;-31
2022/06/03 05:00:21;;;;;;;;;;;;;;;11.54;100.00;102076.50;4995037;28;20382;-29
2022/06/03 05:03:13;;;;;;;;;;;;;;;11.61;100.00;102080.69;4995812;28;19922;-29
2022/06/03 05:05:55;;;;;;;;;;;;;;;11.66;100.00;102074.28;4984679;28;19929;-29
2022/06/03 05:08:41;;;;;;;;;;;;;;;11.72;100.00;102067.59;4973658;28;20509;-30
2022/06/03 05:11:26;;;;;;;;;;;;;;;11.78;100.00;102074.06;4995586;28;19949;-28
2022/06/03 05:14:12;;;;;;;;;;;;;;;11.82;100.00;102084.38;4994783;28;19947;-29
2022/06/03 05:17:00;;;;;;;;;;;;;;;11.89;100.00;102082.19;4995723;28;19921;-29
2022/06/03 05:19:45;;;;;;;;;;;;;;;11.95;100.00;102080.22;4977736;28;19976;-32
2022/06/03 05:22:33;;;;;;;;;;;;;;;12.01;100.00;102082.72;4995391;28;20291;-28
2022/06/03 05:25:10;;;;;;;;;;;;;;;12.07;100.00;102083.56;4995507;28;19922;-29
2022/06/03 05:27:57;;;;;;;;;;;;;;;12.13;100.00;102076.03;4994670;28;19948;-29
2022/06/03 05:30:40;;;;;;;;;;;;;;;12.21;100.00;102086.66;4995186;28;19926;-30
2022/06/03 05:33:23;;;;;;;;;;;;;;;12.27;100.00;102080.78;4972771;28;19960;-29
2022/06/03 05:36:07;;;;;;;;;;;;;;;12.34;100.00;102088.91;4973174;28;19921;-31
2022/06/03 05:38:45;;;;;;;;;;;;;;;12.40;100.00;102085.78;4995112;28;20306;-30
2022/06/03 05:44:19;;;;;;;;;;;;;;;12.53;100.00;102090.00;4994860;28;19976;-30
2022/06/03 05:46:52;;;;;;;;;;;;;;;12.58;100.00;102090.00;4994929;28;19948;-31
2022/06/03 05:49:26;;;;;;;;;;;;;;;12.65;100.00;102087.72;4994188;28;19928;-30
2022/06/03 05:52:11;;;;;;;;;;;;;;;12.72;100.00;102091.06;4995094;28;19922;-29
2022/06/03 05:54:46;;;;;;;;;;;;;;;12.78;100.00;102086.31;4994043;28;19926;-29
2022/06/03 05:57:18;;;;;;;;;;;;;;;12.84;100.00;102085.16;4993258;28;19925;-29
2022/06/03 05:59:58;;;;;;;;;;;;;;;12.92;100.00;102090.19;4993589;28;20016;-29
2022/06/03 06:02:33;;;;;;;;;;;;;;;13.02;100.00;102086.50;4992923;28;19925;-30
2022/06/03 06:05:08;;;;;;;;;;;;;;;13.10;100.00;102083.94;4993400;28;19921;-32
2022/06/03 06:07:38;;;;;;;;;;;;;;;13.20;100.00;102079.44;4993204;28;19959;-33
2022/06/03 06:10:12;;;;;;;;;;;;;;;13.32;100.00;102078.00;4992670;28;19931;-30
2022/06/03 06:12:50;;;;;;;;;;;;;;;13.45;100.00;102090.53;4993038;28;19928;-35
2022/06/03 06:15:38;;;;;;;;;;;;;;;13.57;100.00;102088.25;4992877;28;19925;-30
2022/06/03 06:18:11;;;;;;;;;;;;;;;13.72;100.00;102082.53;4989062;28;20020;-30
2022/06/03 06:20:46;;;;;;;;;;;;;;;13.87;100.00;102083.56;4991677;28;19946;-30
2022/06/03 06:23:17;;;;;;;;;;;;;;;14.06;100.00;102084.53;4990202;28;19936;-30
2022/06/03 06:25:55;;;;;;;;;;;;;;;14.26;100.00;102086.31;4992925;28;19930;-30
2022/06/03 06:28:33;;;;;;;;;;;;;;;14.48;97.76;102079.13;4993053;28;20033;-29
2022/06/03 06:31:25;;;;;;;;;;;;;;;14.72;95.79;102073.53;4991882;28;20040;-29
2022/06/03 06:34:16;;;;;;;;;;;;;;;15.16;96.57;102072.47;4992677;28;19925;-31
2022/06/03 06:37:07;;;;;;;;;;;;;;;15.79;94.90;102081.44;4992060;28;19926;-31
2022/06/03 06:39:46;;;;;;;;;;;;;;;16.39;89.94;102089.19;4991543;28;19961;-30
2022/06/03 06:42:17;;;;;;;;;;;;;;;16.90;88.19;102085.47;4991499;28;19925;-30
2022/06/03 06:44:52;;;;;;;;;;;;;;;17.41;85.11;102093.69;4990951;28;20342;-32
2022/06/03 06:47:23;;;;;;;;;;;;;;;17.79;79.69;102095.13;4991848;28;20023;-34
2022/06/03 06:49:57;;;;;;;;;;;;;;;18.01;76.43;102099.97;4991568;28;19925;-31
2022/06/03 06:52:34;;;;;;;;;;;;;;;18.36;76.48;102103.09;4989170;28;20290;-31
2022/06/03 06:55:08;;;;;;;;;;;;;;;19.08;74.87;102097.19;4990993;28;19926;-32
2022/06/03 06:57:40;;;;;;;;;;;;;;;19.82;68.48;102100.06;4992620;28;19925;-31
2022/06/03 07:00:16;;;;;;;;;;;;;;;20.11;63.07;102103.06;4991454;28;20295;-32
2022/06/03 07:02:45;;;;;;;;;;;;;;;20.10;60.27;102109.91;4991970;28;20048;-31
2022/06/03 07:05:16;;;;;;;;;;;;;;;20.18;59.33;102105.41;4991221;28;19922;-30
2022/06/03 07:07:47;;;;;;;;;;;;;;;20.25;61.01;102100.91;4992373;28;19922;-30
2022/06/03 07:10:20;;;;;;;;;;;;;;;20.78;61.63;102104.50;4992299;28;19928;-31
2022/06/03 07:12:50;;;;;;;;;;;;;;;21.40;58.19;102104.75;4991222;28;20398;-31
2022/06/03 07:15:32;;;;;;;;;;;;;;;21.97;54.27;102092.84;4991922;28;19928;-33
2022/06/03 07:21:11;;;;;;;;;;;;;;;22.81;48.75;102085.84;4992412;28;19926;-34
2022/06/03 07:23:45;;;;;;;;;;;;;;;23.06;49.46;102078.19;4992886;28;19928;-29
2022/06/03 07:26:18;;;;;;;;;;;;;;;23.26;48.02;102073.56;4992492;28;19932;-36
2022/06/03 07:28:50;;;;;;;;;;;;;;;23.59;47.74;102077.13;4993121;28;19926;-30
2022/06/03 07:31:21;;;;;;;;;;;;;;;23.97;50.19;102075.88;4993257;28;19933;-30
2022/06/03 07:33:58;;;;;;;;;;;;;;;24.47;45.00;102083.06;4991963;28;19981;-37
2022/06/03 07:36:29;;;;;;;;;;;;;;;24.67;45.06;102073.41;4993132;28;20346;-32
2022/06/03 07:38:58;;;;;;;;;;;;;;;25.06;46.03;102080.19;4991930;28;19969;-30
2022/06/03 07:41:30;;;;;;;;;;;;;;;25.52;41.90;102080.53;4992354;28;20291;-39
2022/06/03 07:44:01;;;;;;;;;;;;;;;25.83;42.70;102076.78;4992663;28;19922;-30
2022/06/03 07:46:34;;;;;;;;;;;;;;;26.05;39.39;102076.06;4992963;28;19921;-30
2022/06/03 07:49:04;;;;;;;;;;;;;;;26.34;41.24;102074.66;4991969;28;20017;-40
2022/06/03 07:51:34;;;;;;;;;;;;;;;26.45;40.27;102063.41;4992784;28;20268;-30
2022/06/03 07:54:05;;;;;;;;;;;;;;;26.66;39.75;102070.38;4992272;28;19929;-32
2022/06/03 07:56:35;;;;;;;;;;;;;;;26.81;40.39;102067.78;4992514;28;19953;-31
2022/06/03 07:59:04;;;;;;;;;;;;;;;27.09;38.94;102074.88;4991919;28;19928;-33
2022/06/03 08:01:36;;;;;;;;;;;;;;;27.01;36.42;102064.50;4991581;28;19937;-36
2022/06/03 08:04:05;;;;;;;;;;;;;;;26.68;37.60;102070.00;4992865;28;19928;-33
2022/06/03 08:10:56;;;;;;;;;;;;;;;26.58;38.14;102062.84;4992710;28;19957;-41
2022/06/03 08:12:11;;;;;;;;;;;;;;;26.88;38.21;102060.16;4992967;28;19944;-35
2022/06/03 08:14:39;;;;;;;;;;;;;;;27.14;36.66;102064.31;4992671;28;19940;-28
2022/06/03 08:17:09;;;;;;;;;;;;;;;26.96;37.78;102061.97;4990361;28;19928;-31
2022/06/03 08:19:38;;;;;;;;;;;;;;;26.81;37.37;102060.00;4992322;28;19926;-29
2022/06/03 08:22:08;;;;;;;;;;;;;;;26.58;36.84;102057.13;4992433;28;19921;-27
2022/06/03 08:24:39;;;;;;;;;;;;;;;26.57;39.33;102054.66;4992712;28;19976;-27
2022/06/03 08:27:10;;;;;;;;;;;;;;;26.40;37.25;102050.22;4996132;28;19933;-28
2022/06/03 08:29:42;;;;;;;;;;;;;;;26.53;39.59;102056.63;4995623;28;19921;-30
2022/06/03 08:32:13;;;;;;;;;;;;;;;26.66;38.74;102055.22;4996504;28;19932;-28
2022/06/03 08:34:44;;;;;;;;;;;;;;;26.16;36.36;102050.53;4996289;28;19968;-32
2022/06/03 08:37:19;;;;;;;;;;;;;;;26.11;36.50;102048.81;4995648;28;19961;-28
2022/06/03 08:39:47;;;;;;;;;;;;;;;26.39;39.07;102049.41;4996067;28;20330;-28
2022/06/03 08:42:22;;;;;;;;;;;;;;;26.61;37.11;102044.91;4996041;28;19922;-36
2022/06/03 08:45:07;;;;;;;;;;;;;;;27.04;39.08;102043.69;4994854;28;19929;-29
2022/06/03 08:47:39;;;;;;;;;;;;;;;27.45;38.35;102058.25;4987980;28;19940;-33
2022/06/03 08:50:10;;;;;;;;;;;;;;;27.71;36.52;102045.97;4995183;28;19925;-27
2022/06/03 08:52:41;;;;;;;;;;;;;;;27.91;37.05;102043.78;4994387;28;19929;-27
2022/06/03 08:55:23;;;;;;;;;;;;;;;28.19;38.50;102038.41;4994743;28;19922;-28
2022/06/03 08:57:53;;;;;;;;;;;;;;;28.44;36.83;102035.84;4994144;28;19921;-33
2022/06/03 09:00:23;;;;;;;;;;;;;;;28.45;36.65;102032.59;4994168;28;19960;-28
2022/06/03 09:02:56;;;;;;;;;;;;;;;28.42;36.47;102033.38;4994791;28;19929;-28
2022/06/03 09:05:26;;;;;;;;;;;;;;;28.48;35.28;102030.97;4994343;28;20394;-30
2022/06/03 09:07:56;;;;;;;;;;;;;;;28.16;35.12;102041.25;4995671;28;19929;-30
2022/06/03 09:10:27;;;;;;;;;;;;;;;28.02;36.16;102036.13;4995763;28;19928;-28
2022/06/03 09:12:58;;;;;;;;;;;;;;;28.15;37.18;102042.47;4994782;28;19921;-27
2022/06/03 09:15:28;;;;;;;;;;;;;;;28.31;35.11;102040.22;4995363;28;19926;-34
2022/06/03 09:17:59;;;;;;;;;;;;;;;28.25;34.41;102028.25;4995305;28;20024;-28
2022/06/03 09:20:37;;;;;;;;;;;;;;;27.86;36.10;102030.59;4994932;28;19961;-35
2022/06/03 09:23:06;;;;;;;;;;;;;;;27.88;36.39;102021.63;4994960;28;19941;-29
2022/06/03 09:25:35;;;;;;;;;;;;;;;28.04;37.07;102030.84;4994018;28;20298;-30
2022/06/03 09:28:06;;;;;;;;;;;;;;;28.28;37.38;102033.22;4995131;28;19928;-29
2022/06/03 09:30:37;;;;;;;;;;;;;;;28.41;35.59;102028.84;4995136;28;19922;-33
2022/06/03 09:33:09;;;;;;;;;;;;;;;28.36;34.57;102026.34;4994350;28;19961;-30
2022/06/03 09:35:40;;;;;;;;;;;;;;;28.43;34.92;102020.66;4995257;28;20016;-35
2022/06/03 09:38:09;;;;;;;;;;;;;;;28.49;35.08;102024.00;4994295;28;19936;-36
2022/06/03 09:40:40;;;;;;;;;;;;;;;28.70;35.46;102024.22;4992334;28;20393;-35
2022/06/03 09:43:14;;;;;;;;;;;;;;;28.87;35.47;102024.81;4994097;28;19949;-33
2022/06/03 09:45:46;;;;;;;;;;;;;;;28.98;34.21;102017.94;4992951;28;20526;-32
2022/06/03 09:48:16;;;;;;;;;;;;;;;29.00;34.48;102020.41;4992941;28;19932;-35
2022/06/03 09:50:47;;;;;;;;;;;;;;;28.98;33.67;102012.19;4993136;28;20379;-35
2022/06/03 09:53:17;;;;;;;;;;;;;;;28.99;33.83;102018.75;4993577;28;19929;-36
2022/06/03 09:55:49;;;;;;;;;;;;;;;28.63;32.73;102020.44;4992746;28;19921;-30
2022/06/03 09:58:26;;;;;;;;;;;;;;;28.48;35.95;102010.03;4993388;28;20298;-30
2022/06/03 10:00:55;;;;;;;;;;;;;;;28.15;34.61;102013.75;4991986;28;19980;-32
2022/06/03 10:03:25;;;;;;;;;;;;;;;27.92;33.44;102011.03;4993986;28;19925;-31
2022/06/03 10:05:55;;;;;;;;;;;;;;;27.74;35.88;102014.47;4994326;28;19922;-29
2022/06/03 10:08:25;;;;;;;;;;;;;;;27.65;36.07;102013.09;4993622;28;19925;-32
2022/06/03 10:13:39;;;;;;;;;;;;;;;27.99;36.80;102022.56;4994211;28;20008;-35
2022/06/03 10:16:08;;;;;;;;;;;;;;;28.38;37.00;102029.63;4993386;28;20030;-33
2022/06/03 10:18:40;;;;;;;;;;;;;;;28.70;35.93;102027.09;4994045;28;19922;-29
2022/06/03 10:21:30;;;;;;;;;;;;;;;28.46;33.52;102027.66;4994507;28;20321;-28
2022/06/03 10:23:59;;;;;;;;;;;;;;;28.40;36.65;102032.94;4993548;28;19926;-28
2022/06/03 10:26:39;;;;;;;;;;;;;;;28.44;34.89;102044.47;4994183;28;20346;-33
2022/06/03 10:29:08;;;;;;;;;;;;;;;28.52;36.00;102033.91;4993725;28;19932;-28
2022/06/03 10:31:47;;;;;;;;;;;;;;;28.67;36.01;102025.03;4993953;28;19976;-34
2022/06/03 10:34:19;;;;;;;;;;;;;;;28.85;34.41;102025.22;4992836;28;19972;-28
2022/06/03 10:36:48;;;;;;;;;;;;;;;28.83;34.14;102012.47;4993044;28;20398;-32
2022/06/03 10:39:17;;;;;;;;;;;;;;;28.84;35.19;102017.81;4992849;28;20764;-27
2022/06/03 10:41:46;;;;;;;;;;;;;;;28.85;34.11;102007.97;4993676;28;19926;-28
2022/06/03 10:44:15;;;;;;;;;;;;;;;28.90;35.30;102012.53;4993115;28;19928;-29
2022/06/03 10:46:53;;;;;;;;;;;;;;;28.94;35.76;102016.28;4993651;28;19930;-28
2022/06/03 10:49:23;;;;;;;;;;;;;;;28.93;34.86;102006.81;4992794;28;19922;-33
2022/06/03 11:02:57;;;;;;;;;;;;;;;29.04;34.66;102004.03;4992583;28;19929;-32
2022/06/03 11:05:27;;;;;;;;;;;;;;;29.12;34.08;102008.63;4991507;28;20367;-28
2022/06/03 11:08:03;;;;;;;;;;;;;;;28.96;33.45;101999.47;4992488;28;20380;-28
2022/06/03 11:10:33;;;;;;;;;;;;;;;28.85;34.24;101996.47;4992284;28;19953;-28
2022/06/03 11:13:13;;;;;;;;;;;;;;;28.91;35.11;101994.06;4991819;28;20376;-34
2022/06/03 11:15:42;;;;;;;;;;;;;;;28.95;34.50;101994.94;4990998;28;20306;-28
2022/06/03 11:18:14;;;;;;;;;;;;;;;28.95;34.01;101986.31;4991285;28;19932;-28
2022/06/03 11:20:43;;;;;;;;;;;;;;;28.98;34.66;101991.25;4991576;28;19944;-26
2022/06/03 11:23:13;;;;;;;;;;;;;;;29.08;35.77;101988.47;4992266;28;19921;-32
2022/06/03 11:25:41;;;;;;;;;;;;;;;29.20;35.59;101989.34;4991196;28;19953;-30
2022/06/03 11:28:12;;;;;;;;;;;;;;;29.31;35.83;101987.38;4990981;28;19933;-28
2022/06/03 11:30:46;;;;;;;;;;;;;;;29.34;34.76;101992.34;4992054;28;20024;-28
2022/06/03 11:33:16;;;;;;;;;;;;;;;29.16;35.14;101983.59;4991509;28;19932;-32
2022/06/03 11:35:48;;;;;;;;;;;;;;;29.12;35.60;101997.94;4991155;28;19926;-28
2022/06/03 11:38:18;;;;;;;;;;;;;;;28.98;35.87;101994.94;4992091;28;19926;-28
2022/06/03 11:40:52;;;;;;;;;;;;;;;29.09;37.13;101995.88;4991527;28;19926;-34
2022/06/03 11:43:22;;;;;;;;;;;;;;;29.34;36.88;101992.34;4992136;28;19929;-31
2022/06/03 11:46:13;;;;;;;;;;;;;;;29.33;35.53;101993.56;4992208;28;19949;-30
2022/06/03 11:48:42;;;;;;;;;;;;;;;29.17;35.79;101988.13;4992758;28;20335;-28
2022/06/03 11:51:12;;;;;;;;;;;;;;;29.00;36.83;101981.00;4993138;28;19922;-29
2022/06/03 11:53:47;;;;;;;;;;;;;;;29.05;37.26;101988.44;4991983;28;19928;-30
2022/06/03 11:56:16;;;;;;;;;;;;;;;29.17;37.17;101987.31;4992530;28;20037;-33
2022/06/03 11:59:02;;;;;;;;;;;;;;;29.08;35.90;101994.22;4992972;28;19922;-28
2022/06/03 12:01:35;;;;;;;;;;;;;;;28.75;35.36;101994.31;4995003;28;19921;-32
2022/06/03 12:04:15;;;;;;;;;;;;;;;28.41;36.16;101990.69;4996839;28;19925;-30
2022/06/03 12:06:47;;;;;;;;;;;;;;;28.10;36.57;101994.84;4996834;28;20264;-28
2022/06/03 12:09:22;;;;;;;;;;;;;;;27.91;37.83;101989.28;4996213;28;20283;-28
2022/06/03 12:14:49;;;;;;;;;;;;;;;27.74;37.82;101982.09;4971906;28;19922;-34
2022/06/03 12:17:32;;;;;;;;;;;;;;;27.71;38.96;101982.88;4996217;28;20005;-29
2022/06/03 12:20:16;;;;;;;;;;;;;;;27.74;39.16;101987.84;4996358;28;19928;-28
2022/06/03 12:22:45;;;;;;;;;;;;;;;27.91;38.55;101989.28;4995904;28;19929;-29
2022/06/03 12:25:38;;;;;;;;;;;;;;;27.80;38.35;101986.25;4996771;28;20020;-29
2022/06/03 12:28:06;;;;;;;;;;;;;;;27.75;38.01;101987.44;4996762;28;19947;-37
2022/06/03 12:30:37;;;;;;;;;;;;;;;27.64;38.74;101992.19;4995602;28;19921;-30
2022/06/03 12:33:07;;;;;;;;;;;;;;;27.51;39.11;101987.91;4996511;28;19929;-37
2022/06/03 12:35:54;;;;;;;;;;;;;;;27.49;39.88;101990.31;4995496;28;20397;-28
2022/06/03 12:38:31;;;;;;;;;;;;;;;27.32;37.30;101977.38;4994874;28;20016;-28
2022/06/03 12:41:00;;;;;;;;;;;;;;;27.18;38.76;101988.63;4996344;28;19928;-34
2022/06/03 12:43:31;;;;;;;;;;;;;;;27.11;39.78;101982.78;4995459;28;20056;-35
2022/06/03 12:45:59;;;;;;;;;;;;;;;27.12;40.18;101980.75;4996220;28;19949;-27
2022/06/03 12:48:35;;;;;;;;;;;;;;;27.03;39.77;101972.44;4996032;28;20394;-27
2022/06/03 12:51:18;;;;;;;;;;;;;;;27.07;40.70;101977.00;4995286;28;20295;-28
2022/06/03 12:53:49;;;;;;;;;;;;;;;26.99;40.25;101980.97;4994997;28;19929;-31
2022/06/03 12:56:25;;;;;;;;;;;;;;;26.82;39.95;101989.22;4995905;28;19928;-30
2022/06/03 12:58:55;;;;;;;;;;;;;;;26.73;40.61;101993.19;4996063;28;19933;-30
2022/06/03 13:01:34;;;;;;;;;;;;;;;26.64;41.23;101997.50;4995937;28;20012;-30
2022/06/03 13:04:21;;;;;;;;;;;;;;;26.45;41.39;101997.56;4994618;28;19961;-34
2022/06/03 13:07:03;;;;;;;;;;;;;;;26.33;41.92;101999.41;4994283;28;19984;-33
2022/06/03 13:09:46;;;;;;;;;;;;;;;26.28;41.01;101990.28;4994939;28;19922;-29
2022/06/03 13:12:22;;;;;;;;;;;;;;;26.29;41.91;101984.19;4991976;28;19921;-37
2022/06/03 13:14:49;;;;;;;;;;;;;;;26.33;42.27;101999.41;4994541;28;19921;-29
2022/06/03 13:17:36;;;;;;;;;;;;;;;26.25;41.14;102003.31;4995062;28;20313;-27
2022/06/03 13:20:04;;;;;;;;;;;;;;;26.05;41.91;101993.09;4993635;28;20379;-28
2022/06/03 13:22:49;;;;;;;;;;;;;;;25.92;42.92;101986.69;4994196;28;19926;-28
2022/06/03 13:25:24;;;;;;;;;;;;;;;25.96;43.46;101986.78;4993798;28;19925;-28
2022/06/03 13:28:25;;;;;;;;;;;;;;;26.02;43.57;101986.09;4993301;28;19928;-28
2022/06/03 13:31:10;;;;;;;;;;;;;;;25.96;43.07;101981.06;4994346;28;19922;-28
2022/06/03 13:33:56;;;;;;;;;;;;;;;25.81;43.53;101988.50;4987671;28;19922;-28
2022/06/03 13:36:32;;;;;;;;;;;;;;;25.67;44.11;101993.91;4994942;28;19928;-28
2022/06/03 13:39:00;;;;;;;;;;;;;;;25.65;44.49;101991.44;4993446;28;20271;-28
2022/06/03 13:44:38;;;;;;;;;;;;;;;25.55;44.09;101986.28;4994594;28;19928;-28
2022/06/03 13:47:07;;;;;;;;;;;;;;;25.44;44.43;101993.78;4993125;28;19933;-28
2022/06/03 13:49:36;;;;;;;;;;;;;;;25.41;44.26;101991.66;4994439;28;19922;-28
2022/06/03 13:52:08;;;;;;;;;;;;;;;25.40;44.50;101990.84;4994855;28;19922;-28
2022/06/03 13:54:41;;;;;;;;;;;;;;;25.34;44.45;102000.09;4994221;28;20299;-29
2022/06/03 13:57:23;;;;;;;;;;;;;;;25.34;44.67;101992.34;4994736;28;19925;-28